sensor_id;sensor_type;location;lat;lon;timestamp;temperature;humidity
20566;DHT22;10441;50.884;12.064;2023-04-01T00:01:13;8.30;99.90
20566;DHT22;10441;50.884;12.064;2023-04-01T00:03:42;8.20;99.90
20566;DHT22;10441;50.884;12.064;2023-04-01T00:06:11;8.20;99.90
20566;DHT22;10441;50.884;12.064;2023-04-01T00:08:39;8.20;99.90
20566;DHT22;10441;50.884;12.064;2023-04-01T00:11:06;8.20;99.90
20566;DHT22;10441;50.884;12.064;2023-04-01T00:13:35;8.20;99.90
20566;DHT22;10441;50.884;12.064;2023-04-01T00:16:03;8.20;99.90
20566;DHT22;10441;50.884;12.064;2023-04-01T00:18:31;8.30;99.90
20566;DHT22;10441;50.884;12.064;2023-04-01T00:20:58;8.30;99.90
20566;DHT22;10441;50.884;12.064;2023-04-01T00:23:25;8.40;99.90
20566;DHT22;10441;50.884;12.064;2023-04-01T00:25:52;8.30;99.90
20566;DHT22;10441;50.884;12.064;2023-04-01T00:28:20;8.40;99.90
20566;DHT22;10441;50.884;12.064;2023-04-01T00:30:48;8.40;99.90
20566;DHT22;10441;50.884;12.064;2023-04-01T00:33:16;8.40;99.90
20566;DHT22;10441;50.884;12.064;2023-04-01T00:35:43;8.40;99.90
20566;DHT22;10441;50.884;12.064;2023-04-01T00:38:11;8.50;99.90
20566;DHT22;10441;50.884;12.064;2023-04-01T00:40:40;8.50;99.90
20566;DHT22;10441;50.884;12.064;2023-04-01T00:43:11;8.50;99.90
20566;DHT22;10441;50.884;12.064;2023-04-01T00:45:41;8.50;99.90
20566;DHT22;10441;50.884;12.064;2023-04-01T00:48:14;8.40;99.90
20566;DHT22;10441;50.884;12.064;2023-04-01T00:50:44;8.30;99.90
20566;DHT22;10441;50.884;12.064;2023-04-01T00:53:13;8.30;99.90
20566;DHT22;10441;50.884;12.064;2023-04-01T00:55:43;8.30;99.90
20566;DHT22;10441;50.884;12.064;2023-04-01T00:58:15;8.30;99.90
20566;DHT22;10441;50.884;12.064;2023-04-01T01:00:44;8.50;99.90
20566;DHT22;10441;50.884;12.064;2023-04-01T01:03:13;8.50;99.90
20566;DHT22;10441;50.884;12.064;2023-04-01T01:05:57;8.50;99.90
20566;DHT22;10441;50.884;12.064;2023-04-01T01:08:37;8.50;99.90
20566;DHT22;10441;50.884;12.064;2023-04-01T01:11:08;8.40;99.90
20566;DHT22;10441;50.884;12.064;2023-04-01T01:13:45;8.60;99.90
20566;DHT22;10441;50.884;12.064;2023-04-01T01:16:21;8.60;99.90
20566;DHT22;10441;50.884;12.064;2023-04-01T01:18:55;8.70;99.90
20566;DHT22;10441;50.884;12.064;2023-04-01T01:21:49;8.60;99.90
20566;DHT22;10441;50.884;12.064;2023-04-01T01:27:17;8.80;99.90
20566;DHT22;10441;50.884;12.064;2023-04-01T01:30:11;8.60;99.90
20566;DHT22;10441;50.884;12.064;2023-04-01T01:35:38;8.40;99.90
20566;DHT22;10441;50.884;12.064;2023-04-01T01:38:10;8.40;99.90
20566;DHT22;10441;50.884;12.064;2023-04-01T01:40:40;8.50;99.90
20566;DHT22;10441;50.884;12.064;2023-04-01T01:43:10;8.50;99.90
20566;DHT22;10441;50.884;12.064;2023-04-01T01:45:46;8.50;99.90
20566;DHT22;10441;50.884;12.064;2023-04-01T01:48:16;10.00;99.90
20566;DHT22;10441;50.884;12.064;2023-04-01T01:50:46;8.40;99.90
20566;DHT22;10441;50.884;12.064;2023-04-01T01:53:14;8.20;99.90
20566;DHT22;10441;50.884;12.064;2023-04-01T01:55:44;8.20;99.90
20566;DHT22;10441;50.884;12.064;2023-04-01T01:58:14;8.20;99.90
20566;DHT22;10441;50.884;12.064;2023-04-01T02:00:46;8.20;99.90
20566;DHT22;10441;50.884;12.064;2023-04-01T02:03:15;8.30;99.90
20566;DHT22;10441;50.884;12.064;2023-04-01T02:05:45;8.40;99.90
20566;DHT22;10441;50.884;12.064;2023-04-01T02:08:15;8.40;99.90
20566;DHT22;10441;50.884;12.064;2023-04-01T02:10:47;8.40;99.90
20566;DHT22;10441;50.884;12.064;2023-04-01T02:13:20;8.40;99.90
20566;DHT22;10441;50.884;12.064;2023-04-01T02:15:50;8.40;99.90
20566;DHT22;10441;50.884;12.064;2023-04-01T02:18:21;8.40;99.90
20566;DHT22;10441;50.884;12.064;2023-04-01T02:20:50;8.20;99.90
20566;DHT22;10441;50.884;12.064;2023-04-01T02:23:18;8.20;99.90
20566;DHT22;10441;50.884;12.064;2023-04-01T02:25:46;8.20;99.90
20566;DHT22;10441;50.884;12.064;2023-04-01T02:28:14;8.40;99.90
20566;DHT22;10441;50.884;12.064;2023-04-01T02:30:47;8.50;99.90
20566;DHT22;10441;50.884;12.064;2023-04-01T02:33:15;8.40;99.90
20566;DHT22;10441;50.884;12.064;2023-04-01T02:35:43;8.40;99.90
20566;DHT22;10441;50.884;12.064;2023-04-01T02:38:12;8.40;99.90
20566;DHT22;10441;50.884;12.064;2023-04-01T02:40:43;8.30;99.90
20566;DHT22;10441;50.884;12.064;2023-04-01T02:43:11;8.30;99.90
20566;DHT22;10441;50.884;12.064;2023-04-01T02:45:38;8.40;99.90
20566;DHT22;10441;50.884;12.064;2023-04-01T02:48:05;8.30;99.90
20566;DHT22;10441;50.884;12.064;2023-04-01T02:50:32;8.30;99.90
20566;DHT22;10441;50.884;12.064;2023-04-01T02:53:01;8.40;99.90
20566;DHT22;10441;50.884;12.064;2023-04-01T02:55:30;8.50;99.90
20566;DHT22;10441;50.884;12.064;2023-04-01T02:57:57;8.60;99.90
20566;DHT22;10441;50.884;12.064;2023-04-01T03:00:25;8.50;99.90
20566;DHT22;10441;50.884;12.064;2023-04-01T03:02:53;8.40;99.90
20566;DHT22;10441;50.884;12.064;2023-04-01T03:05:20;8.40;99.90
20566;DHT22;10441;50.884;12.064;2023-04-01T03:07:48;8.30;99.90
20566;DHT22;10441;50.884;12.064;2023-04-01T03:10:15;8.20;99.90
20566;DHT22;10441;50.884;12.064;2023-04-01T03:12:43;8.20;99.90
20566;DHT22;10441;50.884;12.064;2023-04-01T03:15:11;8.30;99.90
20566;DHT22;10441;50.884;12.064;2023-04-01T03:17:40;8.40;99.90
20566;DHT22;10441;50.884;12.064;2023-04-01T03:20:08;8.40;99.90
20566;DHT22;10441;50.884;12.064;2023-04-01T03:22:37;8.50;99.90
20566;DHT22;10441;50.884;12.064;2023-04-01T03:25:05;8.40;99.90
20566;DHT22;10441;50.884;12.064;2023-04-01T03:27:33;8.40;99.90
20566;DHT22;10441;50.884;12.064;2023-04-01T03:30:03;8.50;99.90
20566;DHT22;10441;50.884;12.064;2023-04-01T03:32:31;8.40;99.90
20566;DHT22;10441;50.884;12.064;2023-04-01T03:34:58;8.30;99.90
20566;DHT22;10441;50.884;12.064;2023-04-01T03:37:25;8.30;99.90
20566;DHT22;10441;50.884;12.064;2023-04-01T03:39:53;8.20;99.90
20566;DHT22;10441;50.884;12.064;2023-04-01T03:42:20;8.20;99.90
20566;DHT22;10441;50.884;12.064;2023-04-01T03:44:47;8.20;99.90
20566;DHT22;10441;50.884;12.064;2023-04-01T03:47:16;8.20;99.90
20566;DHT22;10441;50.884;12.064;2023-04-01T03:49:43;8.00;99.90
20566;DHT22;10441;50.884;12.064;2023-04-01T03:52:11;8.20;99.90
20566;DHT22;10441;50.884;12.064;2023-04-01T03:54:38;8.20;99.90
20566;DHT22;10441;50.884;12.064;2023-04-01T03:57:05;8.30;99.90
20566;DHT22;10441;50.884;12.064;2023-04-01T03:59:33;8.30;99.90
20566;DHT22;10441;50.884;12.064;2023-04-01T04:02:00;8.30;99.90
20566;DHT22;10441;50.884;12.064;2023-04-01T04:04:29;8.40;99.90
20566;DHT22;10441;50.884;12.064;2023-04-01T04:06:56;8.30;99.90
20566;DHT22;10441;50.884;12.064;2023-04-01T04:09:23;8.20;99.90
20566;DHT22;10441;50.884;12.064;2023-04-01T04:11:50;8.40;99.90
20566;DHT22;10441;50.884;12.064;2023-04-01T04:14:18;8.30;99.90
20566;DHT22;10441;50.884;12.064;2023-04-01T04:16:45;8.30;99.90
20566;DHT22;10441;50.884;12.064;2023-04-01T04:19:12;8.40;99.90
20566;DHT22;10441;50.884;12.064;2023-04-01T04:21:41;8.30;99.90
20566;DHT22;10441;50.884;12.064;2023-04-01T04:24:08;8.30;99.90
20566;DHT22;10441;50.884;12.064;2023-04-01T04:26:36;8.30;99.90
20566;DHT22;10441;50.884;12.064;2023-04-01T04:29:03;8.30;99.90
20566;DHT22;10441;50.884;12.064;2023-04-01T04:31:30;8.20;99.90
20566;DHT22;10441;50.884;12.064;2023-04-01T04:33:59;8.20;99.90
20566;DHT22;10441;50.884;12.064;2023-04-01T04:36:26;8.20;99.90
20566;DHT22;10441;50.884;12.064;2023-04-01T04:38:54;8.20;99.90
20566;DHT22;10441;50.884;12.064;2023-04-01T04:41:23;8.30;99.90
20566;DHT22;10441;50.884;12.064;2023-04-01T04:43:55;8.30;99.90
20566;DHT22;10441;50.884;12.064;2023-04-01T04:46:24;10.00;99.90
20566;DHT22;10441;50.884;12.064;2023-04-01T04:48:51;8.50;99.90
20566;DHT22;10441;50.884;12.064;2023-04-01T04:51:20;8.40;99.90
20566;DHT22;10441;50.884;12.064;2023-04-01T04:53:47;8.50;99.90
20566;DHT22;10441;50.884;12.064;2023-04-01T04:56:19;8.50;99.90
20566;DHT22;10441;50.884;12.064;2023-04-01T04:58:47;8.50;99.90
20566;DHT22;10441;50.884;12.064;2023-04-01T05:01:15;8.50;99.90
20566;DHT22;10441;50.884;12.064;2023-04-01T05:03:43;8.60;99.90
20566;DHT22;10441;50.884;12.064;2023-04-01T05:06:12;8.50;99.90
20566;DHT22;10441;50.884;12.064;2023-04-01T05:08:39;8.50;99.90
20566;DHT22;10441;50.884;12.064;2023-04-01T05:11:09;8.40;99.90
20566;DHT22;10441;50.884;12.064;2023-04-01T05:13:38;8.40;99.90
20566;DHT22;10441;50.884;12.064;2023-04-01T05:16:08;8.50;99.90
20566;DHT22;10441;50.884;12.064;2023-04-01T05:18:36;8.50;99.90
20566;DHT22;10441;50.884;12.064;2023-04-01T05:21:03;8.70;99.90
20566;DHT22;10441;50.884;12.064;2023-04-01T05:23:31;8.80;99.90
20566;DHT22;10441;50.884;12.064;2023-04-01T05:25:59;8.90;99.90
20566;DHT22;10441;50.884;12.064;2023-04-01T05:28:29;9.00;99.90
20566;DHT22;10441;50.884;12.064;2023-04-01T05:30:58;9.00;99.90
20566;DHT22;10441;50.884;12.064;2023-04-01T05:33:25;8.90;99.90
20566;DHT22;10441;50.884;12.064;2023-04-01T05:35:53;9.10;99.90
20566;DHT22;10441;50.884;12.064;2023-04-01T05:38:20;9.20;99.90
20566;DHT22;10441;50.884;12.064;2023-04-01T05:40:47;9.10;99.90
20566;DHT22;10441;50.884;12.064;2023-04-01T05:43:15;9.30;99.90
20566;DHT22;10441;50.884;12.064;2023-04-01T05:45:42;9.40;99.90
20566;DHT22;10441;50.884;12.064;2023-04-01T05:48:10;9.40;99.90
20566;DHT22;10441;50.884;12.064;2023-04-01T05:50:40;9.40;99.90
20566;DHT22;10441;50.884;12.064;2023-04-01T05:53:07;9.50;99.90
20566;DHT22;10441;50.884;12.064;2023-04-01T05:55:35;9.60;99.90
20566;DHT22;10441;50.884;12.064;2023-04-01T05:58:02;9.70;99.90
20566;DHT22;10441;50.884;12.064;2023-04-01T06:00:29;9.80;99.90
